Time;durP1;ratioP1;P1;durP2;ratioP2;P2;SDS_P1;SDS_P2;PMS_P1;PMS_P2;Temp;Humidity;BMP_temperature;BMP_pressure;BME280_temperature;BME280_humidity;BME280_pressure;Samples;Min_cycle;Max_cycle;Signal;HPM_P1;HPM_P2
2021/03/20 00:00:47;;;;;;;7.33;5.30;;;;;;;1.91;100.00;98916.78;1714383;82;20958;-62
2021/03/20 00:03:16;;;;;;;7.42;6.05;;;;;;;1.92;100.00;98922.45;1694830;83;21492;-61
2021/03/20 00:05:46;;;;;;;7.45;5.47;;;;;;;1.92;100.00;98918.97;1766316;80;21232;-62
2021/03/20 00:08:18;;;;;;;8.33;5.35;;;;;;;1.87;100.00;98915.80;1714311;82;21006;-62
2021/03/20 00:10:49;;;;;;;7.50;5.97;;;;;;;1.82;100.00;98920.43;1694603;83;20992;-63
2021/03/20 00:13:20;;;;;;;7.87;5.50;;;;;;;1.81;100.00;98916.07;1766272;81;20879;-63
2021/03/20 00:15:49;;;;;;;5.75;4.90;;;;;;;1.78;100.00;98923.80;1714391;82;21081;-63
2021/03/20 00:18:18;;;;;;;7.47;5.45;;;;;;;1.74;100.00;98924.56;1694613;83;21212;-62
2021/03/20 00:20:47;;;;;;;6.10;4.92;;;;;;;1.65;100.00;98923.03;1766267;81;21077;-62
2021/03/20 00:23:16;;;;;;;6.10;5.03;;;;;;;1.60;100.00;98922.03;1766353;80;21493;-61
2021/03/20 00:25:45;;;;;;;6.60;4.53;;;;;;;1.58;100.00;98916.80;1796232;78;20923;-61
2021/03/20 00:28:21;;;;;;;5.75;4.45;;;;;;;1.52;100.00;98911.02;1797926;79;21457;-62
2021/03/20 00:30:54;;;;;;;7.37;4.80;;;;;;;1.50;100.00;98921.80;1797810;78;21226;-62
2021/03/20 00:33:24;;;;;;;6.42;4.70;;;;;;;1.46;100.00;98921.27;1797707;78;20939;-62
2021/03/20 00:35:54;;;;;;;6.83;4.72;;;;;;;1.46;100.00;98919.96;1797713;79;20946;-62
2021/03/20 00:38:25;;;;;;;6.80;4.90;;;;;;;1.47;100.00;98915.64;1794371;78;20929;-62
2021/03/20 00:40:55;;;;;;;6.47;4.97;;;;;;;1.46;100.00;98917.36;1777022;79;20942;-62
2021/03/20 00:43:26;;;;;;;6.47;4.58;;;;;;;1.40;100.00;98916.29;1766572;79;21509;-61
2021/03/20 00:45:56;;;;;;;6.62;4.83;;;;;;;1.38;100.00;98913.66;1798007;78;21505;-62
2021/03/20 00:48:29;;;;;;;6.05;4.80;;;;;;;1.38;100.00;98908.45;1797860;79;21482;-62
2021/03/20 00:51:02;;;;;;;6.58;5.20;;;;;;;1.32;100.00;98906.11;1797892;78;20916;-62
2021/03/20 00:53:33;;;;;;;8.55;4.53;;;;;;;1.33;100.00;98903.98;1798056;78;21485;-62
2021/03/20 00:56:05;;;;;;;6.58;5.10;;;;;;;1.33;100.00;98913.07;1788101;79;21185;-62
2021/03/20 00:58:43;;;;;;;5.58;4.90;;;;;;;1.31;100.00;98912.16;1736390;81;20923;-62
2021/03/20 01:01:16;;;;;;;6.40;5.25;;;;;;;1.35;100.00;98909.67;1710353;82;21240;-62
2021/03/20 01:03:49;;;;;;;6.92;5.53;;;;;;;1.35;100.00;98910.09;1714526;82;21081;-61
2021/03/20 01:06:23;;;;;;;7.60;5.55;;;;;;;1.37;100.00;98912.31;1702164;82;21092;-61
2021/03/20 01:08:53;;;;;;;7.78;5.95;;;;;;;1.42;100.00;98912.02;1729099;82;21415;-63
2021/03/20 01:11:25;;;;;;;7.40;5.40;;;;;;;1.43;100.00;98913.80;1781626;79;20958;-62
2021/03/20 01:13:55;;;;;;;7.15;6.20;;;;;;;1.41;100.00;98912.43;1727261;82;21113;-61
2021/03/20 01:16:24;;;;;;;8.13;6.75;;;;;;;1.45;100.00;98913.42;1745025;80;21488;-60
2021/03/20 01:18:54;;;;;;;9.45;7.15;;;;;;;1.45;100.00;98911.70;1730472;82;20948;-62
2021/03/20 01:21:24;;;;;;;8.50;6.60;;;;;;;1.48;100.00;98908.30;1723523;82;21551;-63
2021/03/20 01:23:54;;;;;;;8.53;7.22;;;;;;;1.53;100.00;98915.80;1709752;82;20967;-60
2021/03/20 01:26:24;;;;;;;13.10;8.40;;;;;;;1.56;100.00;98911.56;1769194;79;21487;-60
2021/03/20 01:28:53;;;;;;;12.63;8.65;;;;;;;1.56;100.00;98911.56;1747524;80;21092;-60
2021/03/20 01:31:23;;;;;;;10.75;8.10;;;;;;;1.58;100.00;98909.88;1784866;79;21496;-61
2021/03/20 01:33:54;;;;;;;13.95;8.80;;;;;;;1.62;100.00;98903.03;1796031;80;21383;-61
2021/03/20 01:36:26;;;;;;;12.82;7.92;;;;;;;1.65;100.00;98902.23;1725457;82;21498;-62
2021/03/20 01:38:58;;;;;;;10.82;8.00;;;;;;;1.64;100.00;98909.57;1721887;82;20916;-62
2021/03/20 01:41:28;;;;;;;12.20;8.98;;;;;;;1.64;100.00;98908.27;1794607;78;20887;-60
2021/03/20 01:43:58;;;;;;;10.32;7.80;;;;;;;1.61;100.00;98906.48;1796199;79;20924;-62
2021/03/20 01:46:55;;;;;;;10.55;7.67;;;;;;;1.61;100.00;98916.00;1786924;79;22081;-62
2021/03/20 01:49:39;;;;;;;12.82;9.05;;;;;;;1.54;100.00;98910.64;1766372;80;20967;-61
2021/03/20 01:52:25;;;;;;;11.95;7.97;;;;;;;1.54;100.00;98909.77;1769450;79;21466;-62
2021/03/20 01:55:15;;;;;;;12.23;8.28;;;;;;;1.56;100.00;98910.68;1766711;79;20927;-62
2021/03/20 01:57:53;;;;;;;11.08;7.65;;;;;;;1.55;100.00;98911.10;1785709;78;20939;-62
2021/03/20 02:00:39;;;;;;;8.45;7.42;;;;;;;1.54;100.00;98913.66;1793468;79;21375;-60
2021/03/20 02:03:18;;;;;;;8.83;6.90;;;;;;;1.53;100.00;98915.80;1797354;78;20946;-61
2021/03/20 02:05:48;;;;;;;11.15;7.78;;;;;;;1.53;100.00;98911.91;1797900;78;21077;-61
2021/03/20 02:08:18;;;;;;;12.70;8.20;;;;;;;1.46;100.00;98912.16;1792970;78;21462;-62
2021/03/20 02:10:48;;;;;;;11.20;7.70;;;;;;;1.45;100.00;98918.63;1690857;83;21013;-61
2021/03/20 02:13:26;;;;;;;18.82;9.85;;;;;;;1.45;100.00;98912.13;1699039;82;21386;-61
2021/03/20 02:16:04;;;;;;;19.67;8.98;;;;;;;1.43;100.00;98912.08;1714426;82;20927;-61
2021/03/20 02:18:52;;;;;;;20.77;9.38;;;;;;;1.42;100.00;98912.92;1712148;81;21084;-61
2021/03/20 02:21:28;;;;;;;13.00;8.60;;;;;;;1.40;100.00;98917.59;1801826;78;21082;-62
2021/03/20 02:24:44;;;;;;;12.03;8.20;;;;;;;1.34;100.00;98916.13;1776137;79;21489;-61
2021/03/20 02:27:34;;;;;;;14.75;8.43;;;;;;;1.29;100.00;98908.22;1802178;78;21543;-62
2021/03/20 02:30:45;;;;;;;12.98;7.95;;;;;;;1.25;100.00;98915.05;1790161;78;21489;-62
2021/03/20 02:33:50;;;;;;;10.03;7.55;;;;;;;1.22;100.00;98912.78;1798925;79;20954;-62
2021/03/20 02:36:35;;;;;;;9.20;6.85;;;;;;;1.20;100.00;98917.06;1789758;79;21521;-60
2021/03/20 02:39:13;;;;;;;9.25;6.45;;;;;;;1.23;100.00;98919.33;1801159;78;21461;-62
2021/03/20 02:42:19;;;;;;;9.10;6.62;;;;;;;1.20;100.00;98919.24;1804341;78;21364;-62
2021/03/20 02:44:57;;;;;;;7.50;6.20;;;;;;;1.17;100.00;98923.06;1772917;79;21092;-63
2021/03/20 02:47:30;;;;;;;10.43;6.35;;;;;;;1.13;100.00;98921.63;1772605;79;20935;-62
2021/03/20 02:50:08;;;;;;;8.65;6.28;;;;;;;1.10;100.00;98917.23;1746766;80;20925;-62
2021/03/20 02:53:02;;;;;;;9.08;5.85;;;;;;;1.07;100.00;98928.84;1751023;80;20937;-62
2021/03/20 02:55:43;;;;;;;6.40;5.58;;;;;;;1.09;100.00;98927.58;1782069;79;21369;-62
2021/03/20 02:58:34;;;;;;;6.50;5.17;;;;;;;1.08;100.00;98931.02;1789586;78;20962;-62
2021/03/20 03:01:08;;;;;;;6.92;5.47;;;;;;;1.11;100.00;98931.98;1803832;78;21076;-62
2021/03/20 03:03:43;;;;;;;7.20;5.70;;;;;;;1.06;100.00;98933.57;1802071;78;21548;-62
2021/03/20 03:06:36;;;;;;;7.58;5.28;;;;;;;1.05;100.00;98933.11;1786568;79;20935;-62
2021/03/20 03:09:15;;;;;;;7.67;5.30;;;;;;;1.01;100.00;98926.49;1803479;78;22288;-62
2021/03/20 03:12:05;;;;;;;6.78;5.10;;;;;;;0.95;100.00;98929.80;1804102;78;20931;-61
2021/03/20 03:14:43;;;;;;;6.15;5.03;;;;;;;0.86;100.00;98928.20;1802039;79;21057;-63
2021/03/20 03:17:13;;;;;;;6.58;5.08;;;;;;;0.85;100.00;98935.53;1804276;78;21045;-61
2021/03/20 03:19:54;;;;;;;6.53;5.35;;;;;;;0.85;100.00;98940.31;1798803;78;21491;-61
2021/03/20 03:22:29;;;;;;;6.50;5.05;;;;;;;0.84;100.00;98939.84;1783007;78;21488;-61
2021/03/20 03:25:00;;;;;;;7.25;5.03;;;;;;;0.84;100.00;98941.14;1712355;82;21108;-61
2021/03/20 03:27:35;;;;;;;6.28;4.97;;;;;;;0.80;100.00;98942.31;1682128;82;21104;-61
2021/03/20 03:30:11;;;;;;;7.45;5.42;;;;;;;0.76;100.00;98942.64;1687336;83;21081;-61
2021/03/20 03:32:45;;;;;;;9.30;5.28;;;;;;;0.78;100.00;98944.86;1701577;81;21117;-61
2021/03/20 03:35:35;;;;;;;6.70;5.08;;;;;;;0.74;100.00;98941.72;1694668;82;22176;-61
2021/03/20 03:38:38;;;;;;;7.17;5.33;;;;;;;0.72;100.00;98939.50;1739021;82;21513;-61
2021/03/20 03:41:31;;;;;;;8.03;5.90;;;;;;;0.71;100.00;98941.63;1706131;82;21140;-61
2021/03/20 03:44:00;;;;;;;6.33;4.83;;;;;;;0.68;100.00;98944.55;1766486;79;21537;-60
2021/03/20 03:46:32;;;;;;;8.75;5.67;;;;;;;0.63;100.00;98942.70;1768461;79;20958;-59
2021/03/20 03:49:06;;;;;;;9.05;5.12;;;;;;;0.69;100.00;98950.20;1692814;82;27074;-59
2021/03/20 03:51:38;;;;;;;8.25;5.20;;;;;;;0.72;100.00;98952.89;1709449;82;20986;-59
2021/03/20 03:54:07;;;;;;;9.68;5.75;;;;;;;0.71;100.00;98953.31;1766319;80;20895;-59
2021/03/20 03:56:51;;;;;;;14.83;8.53;;;;;;;0.71;100.00;98954.61;1768798;79;21536;-59
2021/03/20 03:59:47;;;;;;;11.25;6.72;;;;;;;0.75;100.00;98959.05;1710420;80;20927;-60
2021/03/20 04:02:48;;;;;;;9.08;5.95;;;;;;;0.77;100.00;98952.61;1714471;82;22308;-60
2021/03/20 04:05:28;;;;;;;6.97;5.62;;;;;;;0.81;100.00;98960.53;1702333;82;21113;-60
2021/03/20 04:08:30;;;;;;;8.10;6.03;;;;;;;0.87;100.00;98959.83;1693248;82;20963;-59
2021/03/20 04:11:10;;;;;;;8.98;5.47;;;;;;;0.89;100.00;98960.75;1619094;84;21120;-59
2021/03/20 04:14:02;;;;;;;8.58;5.87;;;;;;;0.96;100.00;98964.02;1712507;82;20966;-59
2021/03/20 04:16:51;;;;;;;9.33;6.10;;;;;;;0.98;100.00;98961.47;1713883;81;21211;-59
2021/03/20 04:20:00;;;;;;;9.25;5.62;;;;;;;0.99;100.00;98959.33;1761503;79;20975;-60
2021/03/20 04:22:46;;;;;;;7.58;5.53;;;;;;;0.91;100.00;98965.16;1772540;79;20935;-59
2021/03/20 04:25:50;;;;;;;7.20;5.90;;;;;;;0.84;100.00;98967.11;1772625;79;21465;-60
2021/03/20 04:28:42;;;;;;;8.50;6.45;;;;;;;0.87;100.00;98966.32;1772769;81;21469;-60
2021/03/20 04:31:26;;;;;;;12.93;7.20;;;;;;;0.88;100.00;98974.16;1774863;79;21572;-59
2021/03/20 04:34:15;;;;;;;10.45;6.80;;;;;;;0.90;100.00;98974.20;1772473;81;20995;-59
2021/03/20 04:36:51;;;;;;;11.45;6.87;;;;;;;0.92;100.00;98979.02;1772565;79;21573;-60
2021/03/20 04:39:23;;;;;;;8.23;5.80;;;;;;;0.96;100.00;98979.61;1779933;79;21091;-59
2021/03/20 04:41:54;;;;;;;7.87;5.72;;;;;;;0.97;100.00;98982.66;1772772;79;20939;-59
2021/03/20 04:44:23;;;;;;;8.15;5.85;;;;;;;1.00;100.00;98984.05;1804248;78;21375;-59
2021/03/20 04:46:54;;;;;;;9.23;6.35;;;;;;;0.99;100.00;98989.20;1793383;79;20968;-60
2021/03/20 04:49:43;;;;;;;8.50;6.05;;;;;;;1.00;100.00;98990.96;1772559;79;20950;-60
2021/03/20 04:52:22;;;;;;;8.90;6.25;;;;;;;1.01;100.00;98992.72;1733245;81;20908;-59
2021/03/20 04:54:51;;;;;;;9.35;6.25;;;;;;;1.07;100.00;98992.90;1772639;79;21496;-59
2021/03/20 04:57:25;;;;;;;15.53;11.70;;;;;;;1.10;100.00;99000.36;1731147;81;21239;-59
2021/03/20 05:00:16;;;;;;;26.35;18.73;;;;;;;1.12;100.00;99007.78;1770148;79;21487;-59
2021/03/20 05:03:11;;;;;;;31.57;20.00;;;;;;;1.10;100.00;99006.86;1681757;82;21476;-59
2021/03/20 05:05:53;;;;;;;12.73;9.05;;;;;;;1.13;100.00;99008.24;1772509;81;20983;-60
2021/03/20 05:08:46;;;;;;;12.33;8.05;;;;;;;1.13;100.00;99009.54;1772503;80;21468;-60
2021/03/20 05:11:26;;;;;;;11.22;7.40;;;;;;;1.14;100.00;99016.50;1729356;81;21207;-60
2021/03/20 05:14:07;;;;;;;8.60;7.30;;;;;;;1.13;100.00;99017.33;1767421;81;21060;-60
2021/03/20 05:16:40;;;;;;;10.85;6.80;;;;;;;1.15;100.00;99023.45;1772513;81;20970;-59
2021/03/20 05:19:09;;;;;;;9.43;6.60;;;;;;;1.10;100.00;99023.73;1772425;80;21105;-59
2021/03/20 05:21:41;;;;;;;10.70;6.75;;;;;;;1.09;100.00;99026.30;1803838;79;21524;-60
2021/03/20 05:24:18;;;;;;;9.33;5.90;;;;;;;1.08;100.00;99033.20;1804151;78;21222;-60
2021/03/20 05:26:47;;;;;;;10.00;6.40;;;;;;;1.07;100.00;99034.04;1804352;79;21081;-60
2021/03/20 05:29:16;;;;;;;7.97;5.80;;;;;;;1.10;100.00;99039.33;1804541;79;21056;-60
2021/03/20 05:31:45;;;;;;;9.70;5.83;;;;;;;1.15;100.00;99045.54;1776331;79;21060;-60
2021/03/20 05:34:25;;;;;;;8.65;5.95;;;;;;;1.21;100.00;99040.52;1733522;81;21492;-59
2021/03/20 05:36:54;;;;;;;9.45;6.00;;;;;;;1.28;100.00;99040.69;1795848;79;21287;-60
2021/03/20 05:39:23;;;;;;;10.85;6.10;;;;;;;1.34;100.00;99049.55;1804318;79;20958;-60
2021/03/20 05:42:09;;;;;;;7.80;6.03;;;;;;;1.37;100.00;99049.63;1804386;79;20959;-60
2021/03/20 05:45:12;;;;;;;7.35;5.83;;;;;;;1.41;100.00;99048.00;1804457;78;21469;-60
2021/03/20 05:48:03;;;;;;;8.45;5.25;;;;;;;1.43;100.00;99057.64;1772804;79;21207;-60
2021/03/20 05:51:15;;;;;;;7.28;5.37;;;;;;;1.45;100.00;99060.28;1772622;79;21328;-60
2021/03/20 05:54:20;;;;;;;8.10;5.37;;;;;;;1.48;100.00;99061.66;1773547;79;21124;-60
2021/03/20 05:57:14;;;;;;;8.28;5.92;;;;;;;1.52;100.00;99062.21;1733396;81;21094;-60
2021/03/20 06:00:19;;;;;;;9.25;5.50;;;;;;;1.56;100.00;99066.66;1772594;79;21095;-59
2021/03/20 06:03:16;;;;;;;7.75;5.37;;;;;;;1.64;100.00;99072.07;1751903;79;21464;-59
2021/03/20 06:05:53;;;;;;;8.03;5.40;;;;;;;1.71;100.00;99070.09;1772648;79;21442;-60
2021/03/20 06:08:51;;;;;;;7.60;5.10;;;;;;;1.72;100.00;99077.06;1772693;79;20958;-60
2021/03/20 06:12:08;;;;;;;8.05;5.33;;;;;;;1.74;100.00;99074.97;1795666;78;20948;-59
2021/03/20 06:14:55;;;;;;;6.30;5.12;;;;;;;1.74;100.00;99084.06;1738758;81;21101;-59
2021/03/20 06:17:38;;;;;;;7.45;5.35;;;;;;;1.80;100.00;99089.44;1738667;81;21112;-61
2021/03/20 06:20:15;;;;;;;8.58;5.37;;;;;;;1.83;100.00;99092.12;1785555;78;21433;-60
2021/03/20 06:23:27;;;;;;;7.12;5.35;;;;;;;1.83;100.00;99096.44;1797877;78;21081;-61
2021/03/20 06:26:04;;;;;;;9.83;5.58;;;;;;;1.82;100.00;99098.16;1797891;79;20927;-60
2021/03/20 06:28:57;;;;;;;10.75;5.95;;;;;;;1.83;100.00;99088.64;1794795;79;20883;-60
2021/03/20 06:31:41;;;;;;;19.62;8.55;;;;;;;1.90;100.00;99097.10;1760349;80;21049;-60
2021/03/20 06:34:34;;;;;;;68.70;23.75;;;;;;;1.94;100.00;99096.77;1766532;79;21148;-60
2021/03/20 06:37:10;;;;;;;24.18;9.40;;;;;;;1.96;100.00;99101.17;1766237;81;20946;-60
2021/03/20 06:40:04;;;;;;;11.03;6.40;;;;;;;2.02;100.00;99099.15;1702614;82;20919;-60
2021/03/20 06:42:35;;;;;;;8.43;5.90;;;;;;;2.11;100.00;99103.30;1702674;82;21066;-60
2021/03/20 06:45:19;;;;;;;9.80;5.00;;;;;;;2.13;100.00;99092.09;1722735;82;21485;-61
2021/03/20 06:47:51;;;;;;;9.98;5.80;;;;;;;2.18;100.00;99099.59;1713456;82;22194;-60
2021/03/20 06:50:24;;;;;;;11.78;6.33;;;;;;;2.27;100.00;99099.38;1766593;79;21580;-60
2021/03/20 06:52:57;;;;;;;;;;;;;;;2.35;100.00;99098.72;1716991;82;20958;-59
2021/03/20 06:55:38;;;;;;;10.78;6.25;;;;;;;2.47;100.00;99107.30;1709343;84;20234;-61
2021/03/20 06:58:34;;;;;;;13.75;6.60;;;;;;;2.58;100.00;99111.05;1796804;79;20923;-60
2021/03/20 07:01:26;;;;;;;9.35;6.50;;;;;;;2.66;100.00;99118.63;1797867;79;21258;-61
2021/03/20 07:04:15;;;;;;;7.13;5.27;;;;;;;2.73;100.00;99115.75;1781429;79;21092;-60
2021/03/20 07:07:31;;;;;;;10.68;5.83;;;;;;;2.80;100.00;99121.14;1768412;79;21620;-60
2021/03/20 07:10:01;;;;;;;8.95;6.03;;;;;;;2.91;100.00;99123.16;1790584;79;21077;-63
2021/03/20 07:12:35;;;;;;;7.90;5.58;;;;;;;2.97;100.00;99120.27;1754775;79;21049;-60
2021/03/20 07:15:08;;;;;;;7.03;5.40;;;;;;;2.99;100.00;99113.79;1722745;79;21290;-61
2021/03/20 07:17:38;;;;;;;8.10;5.58;;;;;;;3.06;100.00;99115.27;1750502;79;20927;-61
2021/03/20 07:20:13;;;;;;;8.10;5.78;;;;;;;3.11;100.00;99124.08;1797829;79;21505;-60
2021/03/20 07:22:47;;;;;;;7.22;5.10;;;;;;;3.15;100.00;99136.33;1795531;78;20899;-60
2021/03/20 07:25:32;;;;;;;8.20;5.80;;;;;;;3.15;100.00;99132.42;1797775;78;21055;-60
2021/03/20 07:28:15;;;;;;;9.85;5.90;;;;;;;3.17;100.00;99124.63;1797804;78;21184;-61
2021/03/20 07:31:07;;;;;;;8.00;6.05;;;;;;;3.24;100.00;99125.23;1797769;78;20919;-60
2021/03/20 07:33:42;;;;;;;7.33;5.17;;;;;;;3.25;100.00;99132.20;1795705;79;21458;-61
2021/03/20 07:36:35;;;;;;;7.08;5.80;;;;;;;3.23;100.00;99133.02;1797551;78;21477;-61
2021/03/20 07:39:26;;;;;;;7.03;5.78;;;;;;;3.19;100.00;99140.31;1797762;78;20935;-62
2021/03/20 07:42:02;;;;;;;6.72;5.37;;;;;;;3.20;100.00;99139.46;1787760;78;21372;-60
2021/03/20 07:44:58;;;;;;;8.78;5.97;;;;;;;3.24;100.00;99144.78;1713628;82;21524;-61
2021/03/20 07:47:41;;;;;;;9.75;5.85;;;;;;;3.35;100.00;99142.02;1698909;83;21017;-60
2021/03/20 07:50:22;;;;;;;12.05;7.30;;;;;;;3.45;100.00;99144.41;1714366;82;20962;-60
2021/03/20 07:53:18;;;;;;;9.50;7.05;;;;;;;3.51;100.00;99151.06;1715524;81;21100;-61
2021/03/20 07:56:04;;;;;;;9.80;6.55;;;;;;;3.56;100.00;99148.13;1649698;85;22205;-61
2021/03/20 07:58:46;;;;;;;9.05;7.10;;;;;;;3.61;100.00;99154.75;1721500;81;21084;-61
2021/03/20 08:01:28;;;;;;;13.90;7.12;;;;;;;3.61;100.00;99147.80;1738787;82;20962;-67
2021/03/20 08:04:04;;;;;;;10.80;8.25;;;;;;;3.63;100.00;99156.54;1715190;81;21532;-63
2021/03/20 08:06:44;;;;;;;10.13;7.25;;;;;;;3.62;100.00;99156.08;1702851;82;20959;-63
2021/03/20 08:09:24;;;;;;;10.88;8.15;;;;;;;3.63;100.00;99155.23;1738692;82;21512;-62
2021/03/20 08:12:10;;;;;;;10.58;7.85;;;;;;;3.63;100.00;99155.66;1738774;82;20926;-62
2021/03/20 08:14:48;;;;;;;12.93;8.23;;;;;;;3.63;100.00;99157.84;1707062;82;21105;-63
2021/03/20 08:17:18;;;;;;;11.65;8.33;;;;;;;3.65;100.00;99163.09;1709248;82;20935;-62
2021/03/20 08:19:48;;;;;;;12.33;8.48;;;;;;;3.71;100.00;99159.31;1714371;80;20963;-63
2021/03/20 08:23:01;;;;;;;12.70;8.90;;;;;;;3.74;100.00;99160.25;1756582;80;21365;-64
2021/03/20 08:25:47;;;;;;;12.73;8.85;;;;;;;3.77;100.00;99159.02;1756997;80;21005;-63
2021/03/20 08:28:43;;;;;;;11.38;7.40;;;;;;;3.79;100.00;99165.59;1756894;80;20958;-65
2021/03/20 08:31:47;;;;;;;8.93;7.00;;;;;;;3.82;100.00;99160.45;1760567;80;20910;-62
2021/03/20 08:34:50;;;;;;;9.90;7.40;;;;;;;3.84;100.00;99171.80;1757080;80;20935;-63
2021/03/20 08:38:14;;;;;;;8.95;6.95;;;;;;;3.82;100.00;99166.09;1776395;78;21245;-63
2021/03/20 08:40:57;;;;;;;8.50;6.90;;;;;;;3.86;100.00;99170.09;1776506;79;20966;-62
2021/03/20 08:44:04;;;;;;;11.45;7.12;;;;;;;3.94;100.00;99172.86;1786415;79;21049;-62
2021/03/20 08:47:18;;;;;;;10.13;7.00;;;;;;;3.98;100.00;99174.69;1788043;78;21481;-62
2021/03/20 08:50:26;;;;;;;8.40;6.40;;;;;;;3.97;100.00;99174.23;1786215;78;21492;-62
2021/03/20 08:53:16;;;;;;;8.58;6.10;;;;;;;4.01;100.00;99172.14;1787698;78;21434;-62
2021/03/20 08:56:09;;;;;;;8.50;6.25;;;;;;;4.14;100.00;99168.91;1787954;78;20962;-62
2021/03/20 08:58:57;;;;;;;;;;;;;;;4.23;100.00;99169.09;1790625;78;20930;-62
2021/03/20 09:01:56;;;;;;;6.90;5.40;;;;;;;4.28;100.00;99176.63;1788225;78;20113;-61
2021/03/20 09:04:29;;;;;;;6.92;5.30;;;;;;;4.41;100.00;99173.39;1788033;78;20950;-62
2021/03/20 09:07:17;;;;;;;8.43;5.37;;;;;;;4.63;100.00;99181.62;1788171;78;21361;-61
2021/03/20 09:09:53;;;;;;;8.18;6.00;;;;;;;4.79;100.00;99176.27;1786276;78;20938;-63
2021/03/20 09:12:35;;;;;;;11.70;5.78;;;;;;;5.01;100.00;99180.56;1787680;78;21065;-63
2021/03/20 09:15:08;;;;;;;6.17;5.28;;;;;;;5.21;100.00;99190.06;1759205;80;21135;-64
2021/03/20 09:17:41;;;;;;;9.73;6.05;;;;;;;5.32;100.00;99188.92;1778878;79;21564;-65
2021/03/20 09:20:31;;;;;;;8.38;5.50;;;;;;;5.45;100.00;99182.14;1785712;78;21230;-64
2021/03/20 09:23:00;;;;;;;8.20;5.60;;;;;;;5.55;100.00;99178.37;1786940;78;21489;-62
2021/03/20 09:25:36;;;;;;;7.60;6.00;;;;;;;5.74;100.00;99176.91;1714471;82;20974;-62
2021/03/20 09:28:16;;;;;;;7.45;5.70;;;;;;;5.85;100.00;99177.93;1701004;81;21563;-63
2021/03/20 09:30:53;;;;;;;7.53;5.55;;;;;;;5.93;100.00;99168.90;1714289;82;21082;-63
2021/03/20 09:33:35;;;;;;;8.53;5.50;;;;;;;5.97;100.00;99170.70;1699154;82;21385;-63
2021/03/20 09:36:43;;;;;;;7.90;5.17;;;;;;;5.94;100.00;99174.59;1703014;82;21553;-64
2021/03/20 09:39:55;;;;;;;8.38;5.95;;;;;;;5.80;100.00;99178.30;1794088;79;21505;-71
2021/03/20 09:42:29;;;;;;;6.75;4.95;;;;;;;5.68;100.00;99172.91;1714490;82;20990;-63
2021/03/20 09:45:19;;;;;;;6.12;5.05;;;;;;;5.64;100.00;99181.54;1698973;83;21085;-64
2021/03/20 09:47:56;;;;;;;6.20;5.12;;;;;;;5.59;100.00;99185.40;1714454;82;21374;-63
2021/03/20 09:50:32;;;;;;;8.33;5.58;;;;;;;5.60;100.00;99182.35;1682948;82;21101;-63
2021/03/20 09:53:15;;;;;;;8.53;5.50;;;;;;;5.66;100.00;99183.75;1759857;80;20946;-63
2021/03/20 09:55:49;;;;;;;6.40;5.33;;;;;;;5.82;100.00;99180.94;1738856;81;20962;-63
2021/03/20 09:58:24;;;;;;;8.33;5.30;;;;;;;5.95;100.00;99189.44;1778785;79;20931;-63
2021/03/20 10:00:59;;;;;;;8.25;5.20;;;;;;;6.00;100.00;99183.83;1707513;82;21372;-63
2021/03/20 10:03:50;;;;;;;5.90;4.92;;;;;;;6.03;100.00;99184.30;1708927;84;21060;-63
2021/03/20 10:06:33;;;;;;;5.53;4.72;;;;;;;5.98;99.86;99190.78;1781594;79;21484;-61
2021/03/20 10:09:14;;;;;;;3.58;3.20;;;;;;;5.91;97.76;99192.44;1763067;80;21057;-63
2021/03/20 10:12:03;;;;;;;6.08;5.15;;;;;;;5.91;99.10;99192.87;1786323;79;21045;-63
2021/03/20 10:14:37;;;;;;;5.65;4.90;;;;;;;6.13;100.00;99194.89;1719974;81;21027;-64
2021/03/20 10:17:14;;;;;;;7.17;5.12;;;;;;;6.38;100.00;99186.05;1715924;81;20983;-63
2021/03/20 10:19:51;;;;;;;7.72;4.92;;;;;;;6.60;100.00;99192.84;1724004;82;21006;-63
2021/03/20 10:22:33;;;;;;;5.97;4.90;;;;;;;6.72;98.27;99189.92;1698948;81;20979;-63
2021/03/20 10:25:07;;;;;;;6.37;4.83;;;;;;;6.71;94.86;99189.05;1730217;82;21097;-64
2021/03/20 10:27:39;;;;;;;6.17;4.90;;;;;;;6.61;91.20;99186.73;1692515;82;21527;-63
2021/03/20 10:30:25;;;;;;;4.92;4.12;;;;;;;6.53;89.53;99191.02;1708873;82;21145;-63
2021/03/20 10:33:09;;;;;;;5.55;4.53;;;;;;;6.48;88.07;99193.14;1718277;82;21113;-64
2021/03/20 10:35:39;;;;;;;5.60;4.60;;;;;;;6.38;86.47;99192.16;1715037;81;21092;-64
2021/03/20 10:38:27;;;;;;;5.90;4.72;;;;;;;6.29;86.13;99191.63;1713149;82;21116;-63
2021/03/20 10:41:03;;;;;;;6.37;5.03;;;;;;;6.23;86.15;99188.06;1717851;81;21583;-63
2021/03/20 10:43:42;;;;;;;7.25;5.17;;;;;;;6.12;85.43;99186.59;1715997;81;21108;-63
2021/03/20 10:46:32;;;;;;;6.87;4.15;;;;;;;6.06;85.07;99183.90;1729523;81;21546;-63
2021/03/20 10:49:07;;;;;;;5.28;4.45;;;;;;;5.98;83.51;99186.85;1720119;82;20954;-63
2021/03/20 10:51:39;;;;;;;6.08;4.75;;;;;;;5.86;82.14;99176.19;1724694;81;21094;-63
2021/03/20 10:54:21;;;;;;;5.90;4.50;;;;;;;5.74;81.28;99183.89;1784125;79;21196;-63
2021/03/20 10:56:51;;;;;;;;;;;;;;;5.66;81.54;99184.63;1769565;80;20983;-63
2021/03/20 10:59:36;;;;;;;4.65;4.03;;;;;;;5.60;82.22;99176.69;1785253;79;20491;-64
2021/03/20 11:02:30;;;;;;;6.90;4.37;;;;;;;5.58;82.83;99178.84;1783067;79;20905;-62
2021/03/20 11:05:19;;;;;;;9.40;5.95;;;;;;;5.57;82.20;99173.16;1783470;78;21063;-62
2021/03/20 11:07:52;;;;;;;8.65;5.03;;;;;;;5.56;81.59;99172.70;1780070;78;21220;-63
2021/03/20 11:10:35;;;;;;;5.72;4.80;;;;;;;5.55;81.08;99177.05;1783291;79;21093;-62
2021/03/20 11:13:06;;;;;;;;;;;;;;;5.50;80.98;99180.03;1788899;79;20940;-63
2021/03/20 11:15:37;;;;;;;5.53;4.40;;;;;;;5.40;80.00;99184.69;1784741;79;20134;-61
2021/03/20 11:18:14;;;;;;;6.35;4.97;;;;;;;5.18;78.07;99184.75;1723845;81;21084;-62
2021/03/20 11:20:44;;;;;;;6.00;4.90;;;;;;;5.01;78.51;99190.14;1751721;80;21204;-62
2021/03/20 11:23:35;;;;;;;8.63;5.78;;;;;;;4.97;79.52;99186.59;1783213;80;20918;-62
2021/03/20 11:26:25;;;;;;;6.55;4.62;;;;;;;4.98;80.29;99187.48;1783299;79;21076;-63
2021/03/20 11:28:56;;;;;;;7.33;4.80;;;;;;;4.99;80.88;99185.31;1783343;79;20942;-62
2021/03/20 11:31:26;;;;;;;6.25;4.72;;;;;;;4.98;80.25;99190.09;1763934;79;21049;-62
2021/03/20 11:33:55;;;;;;;6.87;5.15;;;;;;;4.92;80.38;99184.33;1815387;77;21227;-62
2021/03/20 11:36:25;;;;;;;6.17;5.05;;;;;;;4.90;79.70;99187.34;1815388;79;20948;-61
2021/03/20 11:38:56;;;;;;;7.28;4.67;;;;;;;4.92;80.35;99192.17;1815364;77;20954;-62
2021/03/20 11:41:30;;;;;;;8.08;5.15;;;;;;;4.98;80.77;99192.28;1814343;78;20947;-62
2021/03/20 11:44:06;;;;;;;6.35;5.10;;;;;;;5.02;81.15;99189.29;1783314;79;20918;-61
2021/03/20 11:46:37;;;;;;;6.87;5.22;;;;;;;5.05;81.13;99181.49;1789515;77;21225;-64
2021/03/20 11:49:28;;;;;;;7.20;4.87;;;;;;;5.08;80.79;99190.69;1794544;77;20934;-62
2021/03/20 11:51:57;;;;;;;7.67;5.87;;;;;;;5.10;81.16;99189.41;1802067;79;20938;-63
2021/03/20 12:14:42;;;;;;;6.95;5.25;;;;;;;5.41;82.90;99177.29;1783960;79;22497;-60
2021/03/20 12:17:17;;;;;;;12.73;8.38;;;;;;;5.54;81.72;99186.19;1768813;80;20944;-62
2021/03/20 12:20:05;;;;;;;13.08;8.70;;;;;;;5.59;81.41;99183.21;1754109;80;21590;-62
2021/03/20 12:22:51;;;;;;;8.60;6.30;;;;;;;5.58;80.30;99186.25;1777042;80;21023;-65
2021/03/20 12:25:46;;;;;;;10.63;6.67;;;;;;;5.56;79.99;99189.28;1755832;81;20952;-63
2021/03/20 12:28:42;;;;;;;6.90;5.15;;;;;;;5.57;79.82;99186.23;1772364;80;21185;-62
2021/03/20 12:31:23;;;;;;;14.40;6.03;;;;;;;5.54;79.68;99183.15;1737475;81;21033;-62
2021/03/20 12:34:11;;;;;;;10.70;5.92;;;;;;;5.53;78.72;99180.08;1769387;80;21033;-63
2021/03/20 12:36:49;;;;;;;18.87;12.80;;;;;;;5.48;78.09;99182.18;1738096;81;20913;-62
2021/03/20 12:39:30;;;;;;;8.25;6.20;;;;;;;5.38;77.09;99187.70;1773875;79;20956;-63
2021/03/20 12:41:59;;;;;;;7.60;5.33;;;;;;;5.36;76.48;99190.30;1757212;81;21080;-63
2021/03/20 12:44:31;;;;;;;6.03;4.50;;;;;;;5.30;76.35;99180.17;1758665;80;21219;-63
2021/03/20 12:47:03;;;;;;;8.50;5.58;;;;;;;5.27;76.63;99187.55;1755184;81;22288;-63
2021/03/20 12:49:34;;;;;;;7.17;5.25;;;;;;;5.26;76.04;99184.91;1756099;81;21009;-63
2021/03/20 12:52:20;;;;;;;6.90;5.25;;;;;;;5.20;75.57;99187.00;1756156;81;21136;-63
2021/03/20 12:54:56;;;;;;;6.37;4.85;;;;;;;5.14;75.97;99182.06;1757564;80;21009;-64
2021/03/20 12:57:33;;;;;;;7.17;5.08;;;;;;;5.14;75.61;99182.06;1739476;81;21146;-63
2021/03/20 13:00:07;;;;;;;8.13;5.40;;;;;;;5.11;75.69;99184.20;1763267;80;21195;-63